createdAt,value
2022-11-05T00:12:02.188Z,95.08
2022-11-05T00:26:59.759Z,95.07
2022-11-05T00:42:16.963Z,97.63
2022-11-05T00:57:14.959Z,99.14
2022-11-05T01:12:06.976Z,100.00
2022-11-05T01:26:59.795Z,100.00
2022-11-05T01:41:51.532Z,100.00
2022-11-05T01:56:46.129Z,100.00
2022-11-05T02:11:41.435Z,100.00
2022-11-05T02:26:54.371Z,100.00
2022-11-05T02:42:07.252Z,100.00
2022-11-05T02:57:03.592Z,100.00
2022-11-05T03:12:16.314Z,100.00
2022-11-05T03:27:17.105Z,100.00
2022-11-05T03:42:11.465Z,100.00
2022-11-05T03:57:15.207Z,100.00
2022-11-05T04:12:30.860Z,100.00
2022-11-05T04:27:28.060Z,100.00
2022-11-05T04:42:19.169Z,98.94
2022-11-05T04:57:10.668Z,97.55
2022-11-05T05:12:02.565Z,95.95
2022-11-05T05:26:54.022Z,95.78
2022-11-05T05:41:49.995Z,95.36
2022-11-05T05:56:41.472Z,96.07
2022-11-05T06:11:33.273Z,97.47
2022-11-05T06:26:24.707Z,97.54
2022-11-05T06:41:16.282Z,98.81
2022-11-05T06:56:08.344Z,98.64
2022-11-05T07:11:00.662Z,96.26
2022-11-05T07:25:47.136Z,96.87
2022-11-05T07:40:37.275Z,96.38
2022-11-05T07:55:28.912Z,95.40
2022-11-05T08:10:20.921Z,95.67
2022-11-05T08:25:12.383Z,94.82
2022-11-05T08:40:04.135Z,93.80
2022-11-05T08:54:55.136Z,92.94
2022-11-05T09:09:47.419Z,90.42
2022-11-05T09:24:44.478Z,90.45
2022-11-05T09:39:40.687Z,87.57
2022-11-05T09:54:31.930Z,86.80
2022-11-05T10:09:35.498Z,82.65
2022-11-05T10:24:31.670Z,82.69
2022-11-05T10:39:24.518Z,81.09
2022-11-05T10:54:16.063Z,81.80
2022-11-05T11:09:06.733Z,79.00
2022-11-05T11:24:00.440Z,79.16
2022-11-05T11:38:58.132Z,79.52
2022-11-05T11:53:52.246Z,79.77
2022-11-05T12:08:59.269Z,80.00
2022-11-05T12:23:48.462Z,80.93
2022-11-05T12:39:00.838Z,80.55
2022-11-05T12:54:24.504Z,76.30
2022-11-05T13:09:21.929Z,76.93
2022-11-05T13:24:18.160Z,76.87
2022-11-05T13:39:19.882Z,73.30
2022-11-05T13:54:48.741Z,69.82
2022-11-05T14:09:47.201Z,68.76
2022-11-05T14:24:39.092Z,68.12
2022-11-05T14:39:30.494Z,67.06
2022-11-05T14:54:49.354Z,67.59
2022-11-05T15:10:10.100Z,67.52
2022-11-05T15:25:06.599Z,71.56
2022-11-05T15:39:57.236Z,74.19
2022-11-05T15:54:44.171Z,73.69
2022-11-05T16:09:35.469Z,74.78
2022-11-05T16:24:29.323Z,75.90
2022-11-05T16:39:20.381Z,75.71
2022-11-05T16:54:10.083Z,77.38
2022-11-05T17:09:01.212Z,77.74
2022-11-05T17:23:51.480Z,79.21
2022-11-05T17:38:42.071Z,79.23
2022-11-05T17:53:34.833Z,80.21
2022-11-05T18:08:24.271Z,81.58
2022-11-05T18:23:15.760Z,82.50
2022-11-05T18:38:05.872Z,82.77
2022-11-05T18:52:56.560Z,84.03
2022-11-05T19:07:47.677Z,85.23
2022-11-05T19:22:38.617Z,85.56
2022-11-05T19:37:29.705Z,85.38
2022-11-05T19:52:20.486Z,85.06
2022-11-05T20:07:11.576Z,84.55
2022-11-05T20:22:02.633Z,85.00
2022-11-05T20:36:53.282Z,85.42
2022-11-05T21:06:50.036Z,86.14
2022-11-05T21:21:41.458Z,86.33
2022-11-05T21:36:31.270Z,86.17
2022-11-05T21:51:40.808Z,86.07
2022-11-05T22:06:37.868Z,85.85
2022-11-05T22:21:29.192Z,85.93
2022-11-05T22:36:19.467Z,86.07
2022-11-05T22:51:10.086Z,86.43
2022-11-05T23:06:03.650Z,86.97
2022-11-05T23:21:20.540Z,88.20
2022-11-05T23:36:31.676Z,87.85
2022-11-05T23:51:28.498Z,88.41
